sensor_id;sensor_type;location;lat;lon;timestamp;pressure;altitude;pressure_sealevel;temperature;humidity
65376;BME280;51976;47.332;9.404;2022-11-20T00:00:24;92341.84;;;18.27;44.11
65376;BME280;51976;47.332;9.404;2022-11-20T00:02:50;92333.31;;;18.29;44.38
65376;BME280;51976;47.332;9.404;2022-11-20T00:05:16;92332.50;;;18.28;44.36
65376;BME280;51976;47.332;9.404;2022-11-20T00:07:42;92336.03;;;18.29;44.42
65376;BME280;51976;47.332;9.404;2022-11-20T00:10:08;92335.25;;;18.28;44.20
65376;BME280;51976;47.332;9.404;2022-11-20T00:12:33;92340.69;;;18.28;44.36
65376;BME280;51976;47.332;9.404;2022-11-20T00:14:58;92337.63;;;18.30;44.17
65376;BME280;51976;47.332;9.404;2022-11-20T00:17:24;92332.84;;;18.26;44.47
65376;BME280;51976;47.332;9.404;2022-11-20T00:19:49;92335.69;;;18.30;44.28
65376;BME280;51976;47.332;9.404;2022-11-20T00:22:15;92336.50;;;18.31;43.84
65376;BME280;51976;47.332;9.404;2022-11-20T00:24:40;92339.56;;;18.29;44.77
65376;BME280;51976;47.332;9.404;2022-11-20T00:27:05;92332.50;;;18.28;44.49
65376;BME280;51976;47.332;9.404;2022-11-20T00:29:31;92332.84;;;18.26;44.29
65376;BME280;51976;47.332;9.404;2022-11-20T00:31:56;92343.75;;;18.26;44.31
65376;BME280;51976;47.332;9.404;2022-11-20T00:34:21;92342.63;;;18.27;44.05
65376;BME280;51976;47.332;9.404;2022-11-20T00:36:47;92340.25;;;18.26;44.35
65376;BME280;51976;47.332;9.404;2022-11-20T00:39:12;92347.28;;;18.27;44.22
65376;BME280;51976;47.332;9.404;2022-11-20T00:41:37;92342.97;;;18.26;44.55
65376;BME280;51976;47.332;9.404;2022-11-20T00:44:03;92353.22;;;18.29;44.15
65376;BME280;51976;47.332;9.404;2022-11-20T00:46:28;92351.16;;;18.26;44.05
65376;BME280;51976;47.332;9.404;2022-11-20T00:48:54;92363.31;;;18.29;44.48
65376;BME280;51976;47.332;9.404;2022-11-20T00:51:22;92357.88;;;18.29;44.52
65376;BME280;51976;47.332;9.404;2022-11-20T00:53:49;92353.22;;;18.29;44.07
65376;BME280;51976;47.332;9.404;2022-11-20T00:56:16;92362.53;;;18.28;44.08
65376;BME280;51976;47.332;9.404;2022-11-20T00:58:43;92360.94;;;18.27;44.43
65376;BME280;51976;47.332;9.404;2022-11-20T01:01:12;92359.78;;;18.28;44.32
65376;BME280;51976;47.332;9.404;2022-11-20T01:03:40;92362.97;;;18.30;44.29
65376;BME280;51976;47.332;9.404;2022-11-20T01:06:16;92364.13;;;18.29;44.14
65376;BME280;51976;47.332;9.404;2022-11-20T01:08:42;92371.50;;;18.29;44.32
65376;BME280;51976;47.332;9.404;2022-11-20T01:11:10;92367.97;;;18.28;44.46
65376;BME280;51976;47.332;9.404;2022-11-20T01:13:36;92371.84;;;18.27;44.22
65376;BME280;51976;47.332;9.404;2022-11-20T01:16:12;92370.25;;;18.26;44.34
65376;BME280;51976;47.332;9.404;2022-11-20T01:18:39;92369.34;;;18.22;44.21
65376;BME280;51976;47.332;9.404;2022-11-20T01:21:08;92370.25;;;18.26;44.10
65376;BME280;51976;47.332;9.404;2022-11-20T01:23:36;92366.72;;;18.25;44.43
65376;BME280;51976;47.332;9.404;2022-11-20T01:26:03;92374.91;;;18.25;44.41
65376;BME280;51976;47.332;9.404;2022-11-20T01:28:30;92378.44;;;18.26;44.24
65376;BME280;51976;47.332;9.404;2022-11-20T01:30:56;92374.25;;;18.29;44.07
65376;BME280;51976;47.332;9.404;2022-11-20T01:33:22;92378.91;;;18.28;44.18
65376;BME280;51976;47.332;9.404;2022-11-20T01:35:47;92372.31;;;18.29;44.26
65376;BME280;51976;47.332;9.404;2022-11-20T01:38:12;92379.25;;;18.26;43.99
65376;BME280;51976;47.332;9.404;2022-11-20T01:40:38;92381.63;;;18.28;44.14
65376;BME280;51976;47.332;9.404;2022-11-20T01:43:13;92375.38;;;18.27;44.00
65376;BME280;51976;47.332;9.404;2022-11-20T01:45:58;92381.16;;;18.26;44.30
65376;BME280;51976;47.332;9.404;2022-11-20T01:48:26;92377.31;;;18.27;44.19
65376;BME280;51976;47.332;9.404;2022-11-20T01:50:53;92384.69;;;18.26;44.26
65376;BME280;51976;47.332;9.404;2022-11-20T01:53:23;92397.53;;;18.26;44.02
65376;BME280;51976;47.332;9.404;2022-11-20T01:55:53;92395.94;;;18.25;43.93
65376;BME280;51976;47.332;9.404;2022-11-20T01:58:22;92404.47;;;18.23;44.20
65376;BME280;51976;47.332;9.404;2022-11-20T02:00:49;92403.78;;;18.26;44.05
65376;BME280;51976;47.332;9.404;2022-11-20T02:03:17;92406.19;;;18.28;43.84
65376;BME280;51976;47.332;9.404;2022-11-20T02:05:57;92401.41;;;18.25;44.15
65376;BME280;51976;47.332;9.404;2022-11-20T02:08:26;92399.59;;;18.29;44.22
65376;BME280;51976;47.332;9.404;2022-11-20T02:10:51;92398.00;;;18.28;44.23
65376;BME280;51976;47.332;9.404;2022-11-20T02:13:17;92387.88;;;18.29;44.09
65376;BME280;51976;47.332;9.404;2022-11-20T02:16:03;92390.16;;;18.26;43.93
65376;BME280;51976;47.332;9.404;2022-11-20T02:18:28;92392.53;;;18.28;44.09
65376;BME280;51976;47.332;9.404;2022-11-20T02:21:08;92392.53;;;18.28;44.08
65376;BME280;51976;47.332;9.404;2022-11-20T02:26:12;92393.69;;;18.27;44.09
65376;BME280;51976;47.332;9.404;2022-11-20T02:28:38;92392.09;;;18.26;44.24
65376;BME280;51976;47.332;9.404;2022-11-20T02:31:04;92392.88;;;18.26;43.98
65376;BME280;51976;47.332;9.404;2022-11-20T02:33:30;92399.13;;;18.27;44.00
65376;BME280;51976;47.332;9.404;2022-11-20T02:35:55;92403.00;;;18.26;44.12
65376;BME280;51976;47.332;9.404;2022-11-20T02:38:20;92401.41;;;18.25;43.92
65376;BME280;51976;47.332;9.404;2022-11-20T02:40:46;92403.00;;;18.26;44.14
65376;BME280;51976;47.332;9.404;2022-11-20T02:43:11;92404.13;;;18.25;44.24
65376;BME280;51976;47.332;9.404;2022-11-20T02:45:37;92395.94;;;18.25;43.94
65376;BME280;51976;47.332;9.404;2022-11-20T02:48:03;92398.34;;;18.26;43.67
65376;BME280;51976;47.332;9.404;2022-11-20T02:50:28;92389.34;;;18.26;44.05
65376;BME280;51976;47.332;9.404;2022-11-20T02:52:54;92391.97;;;18.22;44.32
65376;BME280;51976;47.332;9.404;2022-11-20T02:55:19;92385.03;;;18.25;43.89
65376;BME280;51976;47.332;9.404;2022-11-20T02:57:45;92391.28;;;18.25;43.85
65376;BME280;51976;47.332;9.404;2022-11-20T03:00:10;92395.28;;;18.28;44.20
65376;BME280;51976;47.332;9.404;2022-11-20T03:02:36;92391.28;;;18.25;43.99
65376;BME280;51976;47.332;9.404;2022-11-20T03:05:02;92388.22;;;18.27;43.91
65376;BME280;51976;47.332;9.404;2022-11-20T03:07:27;92393.69;;;18.27;43.85
65376;BME280;51976;47.332;9.404;2022-11-20T03:09:53;92394.34;;;18.24;43.91
65376;BME280;51976;47.332;9.404;2022-11-20T03:12:18;92397.88;;;18.24;43.87
65376;BME280;51976;47.332;9.404;2022-11-20T03:14:44;92400.28;;;18.26;43.80
65376;BME280;51976;47.332;9.404;2022-11-20T03:17:09;92399.81;;;18.24;43.78
65376;BME280;51976;47.332;9.404;2022-11-20T03:19:34;92392.41;;;18.24;44.02
65376;BME280;51976;47.332;9.404;2022-11-20T03:22:00;92392.75;;;18.23;44.09
65376;BME280;51976;47.332;9.404;2022-11-20T03:24:25;92393.22;;;18.25;44.03
65376;BME280;51976;47.332;9.404;2022-11-20T03:26:51;92383.44;;;18.24;44.06
65376;BME280;51976;47.332;9.404;2022-11-20T03:29:16;92390.16;;;18.26;43.85
65376;BME280;51976;47.332;9.404;2022-11-20T03:31:42;92392.88;;;18.26;43.69
65376;BME280;51976;47.332;9.404;2022-11-20T03:34:09;92398.69;;;18.25;43.92
65376;BME280;51976;47.332;9.404;2022-11-20T03:36:37;92399.13;;;18.27;43.92
65376;BME280;51976;47.332;9.404;2022-11-20T03:39:03;92395.28;;;18.28;43.92
65376;BME280;51976;47.332;9.404;2022-11-20T03:41:30;92395.59;;;18.26;43.95
65376;BME280;51976;47.332;9.404;2022-11-20T03:43:58;92392.09;;;18.26;43.90
65376;BME280;51976;47.332;9.404;2022-11-20T03:46:24;92390.94;;;18.27;43.87
65376;BME280;51976;47.332;9.404;2022-11-20T03:48:50;92397.19;;;18.27;43.84
65376;BME280;51976;47.332;9.404;2022-11-20T03:51:27;92406.19;;;18.28;43.86
65376;BME280;51976;47.332;9.404;2022-11-20T03:53:55;92403.00;;;18.26;44.01
65376;BME280;51976;47.332;9.404;2022-11-20T03:56:26;92409.72;;;18.29;43.78
65376;BME280;51976;47.332;9.404;2022-11-20T03:58:52;92398.69;;;18.25;43.93
65376;BME280;51976;47.332;9.404;2022-11-20T04:01:20;92399.81;;;18.24;44.05
65376;BME280;51976;47.332;9.404;2022-11-20T04:03:46;92407.31;;;18.27;43.61
65376;BME280;51976;47.332;9.404;2022-11-20T04:06:14;92401.06;;;18.26;43.84
65376;BME280;51976;47.332;9.404;2022-11-20T04:08:41;92405.38;;;18.27;43.50
65376;BME280;51976;47.332;9.404;2022-11-20T04:11:18;92406.19;;;18.28;43.89
65376;BME280;51976;47.332;9.404;2022-11-20T04:13:47;92403.44;;;18.28;43.69
65376;BME280;51976;47.332;9.404;2022-11-20T04:16:14;92408.91;;;18.28;43.72
65376;BME280;51976;47.332;9.404;2022-11-20T04:18:40;92404.59;;;18.27;43.60
65376;BME280;51976;47.332;9.404;2022-11-20T04:21:06;92405.38;;;18.27;43.68
65376;BME280;51976;47.332;9.404;2022-11-20T04:23:33;92401.88;;;18.27;43.81
65376;BME280;51976;47.332;9.404;2022-11-20T04:26:06;92413.91;;;18.26;43.78
65376;BME280;51976;47.332;9.404;2022-11-20T04:28:32;92412.78;;;18.27;43.85
65376;BME280;51976;47.332;9.404;2022-11-20T04:31:09;92412.78;;;18.27;43.79
65376;BME280;51976;47.332;9.404;2022-11-20T04:33:35;92410.03;;;18.27;43.94
65376;BME280;51976;47.332;9.404;2022-11-20T04:36:03;92402.31;;;18.29;43.72
65376;BME280;51976;47.332;9.404;2022-11-20T04:38:29;92405.72;;;18.26;43.49
65376;BME280;51976;47.332;9.404;2022-11-20T04:40:57;92404.59;;;18.27;43.66
65376;BME280;51976;47.332;9.404;2022-11-20T04:43:23;92408.13;;;18.27;43.98
65376;BME280;51976;47.332;9.404;2022-11-20T04:45:52;92411.63;;;18.28;43.67
65376;BME280;51976;47.332;9.404;2022-11-20T04:48:18;92411.19;;;18.26;43.89
65376;BME280;51976;47.332;9.404;2022-11-20T04:50:43;92410.03;;;18.27;43.58
65376;BME280;51976;47.332;9.404;2022-11-20T04:53:09;92411.63;;;18.28;43.79
65376;BME280;51976;47.332;9.404;2022-11-20T04:55:34;92408.91;;;18.28;43.65
65376;BME280;51976;47.332;9.404;2022-11-20T04:57:59;92411.63;;;18.28;43.80
65376;BME280;51976;47.332;9.404;2022-11-20T05:00:25;92408.13;;;18.27;43.85
65376;BME280;51976;47.332;9.404;2022-11-20T05:02:50;92411.97;;;18.26;43.59
65376;BME280;51976;47.332;9.404;2022-11-20T05:05:15;92406.19;;;18.28;43.84
65376;BME280;51976;47.332;9.404;2022-11-20T05:07:41;92407.31;;;18.27;43.79
65376;BME280;51976;47.332;9.404;2022-11-20T05:10:06;92405.38;;;18.27;43.49
65376;BME280;51976;47.332;9.404;2022-11-20T05:12:32;92415.50;;;18.27;43.63
65376;BME280;51976;47.332;9.404;2022-11-20T05:14:57;92414.72;;;18.26;43.72
65376;BME280;51976;47.332;9.404;2022-11-20T05:17:23;92418.91;;;18.24;43.81
65376;BME280;51976;47.332;9.404;2022-11-20T05:19:48;92421.28;;;18.25;43.65
65376;BME280;51976;47.332;9.404;2022-11-20T05:22:13;92413.78;;;18.22;43.87
65376;BME280;51976;47.332;9.404;2022-11-20T05:24:39;92424.03;;;18.25;43.51
65376;BME280;51976;47.332;9.404;2022-11-20T05:27:04;92426.41;;;18.27;43.50
65376;BME280;51976;47.332;9.404;2022-11-20T05:29:30;92425.97;;;18.25;43.86
65376;BME280;51976;47.332;9.404;2022-11-20T05:31:55;92424.69;;;18.22;43.83
65376;BME280;51976;47.332;9.404;2022-11-20T05:34:20;92424.69;;;18.22;43.68
65376;BME280;51976;47.332;9.404;2022-11-20T05:36:46;92424.81;;;18.26;43.72
65376;BME280;51976;47.332;9.404;2022-11-20T05:39:11;92422.09;;;18.26;43.59
65376;BME280;51976;47.332;9.404;2022-11-20T05:41:37;92421.63;;;18.24;43.60
65376;BME280;51976;47.332;9.404;2022-11-20T05:44:02;92427.88;;;18.24;43.54
65376;BME280;51976;47.332;9.404;2022-11-20T05:46:28;92426.75;;;18.25;43.51
65376;BME280;51976;47.332;9.404;2022-11-20T05:48:53;92429.47;;;18.25;43.56
65376;BME280;51976;47.332;9.404;2022-11-20T05:51:19;92437.66;;;18.25;43.87
65376;BME280;51976;47.332;9.404;2022-11-20T05:53:45;92401.59;;;18.08;43.66
65376;BME280;51976;47.332;9.404;2022-11-20T05:56:13;92427.56;;;18.26;43.58
65376;BME280;51976;47.332;9.404;2022-11-20T05:58:39;92429.16;;;18.27;43.71
65376;BME280;51976;47.332;9.404;2022-11-20T06:01:12;92429.38;;;18.22;43.60
65376;BME280;51976;47.332;9.404;2022-11-20T06:03:38;92427.56;;;18.26;43.86
65376;BME280;51976;47.332;9.404;2022-11-20T06:06:05;92428.34;;;18.26;43.61
65376;BME280;51976;47.332;9.404;2022-11-20T06:08:31;92421.41;;;18.29;43.78
65376;BME280;51976;47.332;9.404;2022-11-20T06:10:57;92423.47;;;18.32;43.43
65376;BME280;51976;47.332;9.404;2022-11-20T06:13:23;92414.81;;;18.30;43.45
65376;BME280;51976;47.332;9.404;2022-11-20T06:15:52;92412.56;;;18.32;43.36
65376;BME280;51976;47.332;9.404;2022-11-20T06:18:18;92407.09;;;18.32;43.53
65376;BME280;51976;47.332;9.404;2022-11-20T06:20:45;92417.56;;;18.30;43.64
65376;BME280;51976;47.332;9.404;2022-11-20T06:23:11;92411.38;;;18.33;43.66
65376;BME280;51976;47.332;9.404;2022-11-20T06:25:40;92412.56;;;18.32;43.30
65376;BME280;51976;47.332;9.404;2022-11-20T06:28:07;92411.75;;;18.32;43.49
65376;BME280;51976;47.332;9.404;2022-11-20T06:30:33;92416.41;;;18.31;43.61
65376;BME280;51976;47.332;9.404;2022-11-20T06:32:58;92412.56;;;18.32;43.57
65376;BME280;51976;47.332;9.404;2022-11-20T06:35:23;92423.00;;;18.30;43.65
65376;BME280;51976;47.332;9.404;2022-11-20T06:37:49;92423.09;;;18.21;43.40
65376;BME280;51976;47.332;9.404;2022-11-20T06:40:14;92428.91;;;18.20;43.58
65376;BME280;51976;47.332;9.404;2022-11-20T06:42:40;92425.97;;;18.25;43.55
65376;BME280;51976;47.332;9.404;2022-11-20T06:45:05;92428.69;;;18.25;43.46
65376;BME280;51976;47.332;9.404;2022-11-20T06:47:31;92433.34;;;18.24;43.67
65376;BME280;51976;47.332;9.404;2022-11-20T06:49:56;92435.28;;;18.24;43.48
65376;BME280;51976;47.332;9.404;2022-11-20T06:52:22;92434.81;;;18.22;43.37
65376;BME280;51976;47.332;9.404;2022-11-20T06:54:47;92442.31;;;18.25;43.60
65376;BME280;51976;47.332;9.404;2022-11-20T06:57:12;92439.59;;;18.25;43.41
65376;BME280;51976;47.332;9.404;2022-11-20T06:59:38;92447.78;;;18.25;43.52
65376;BME280;51976;47.332;9.404;2022-11-20T07:02:03;92445.84;;;18.25;43.66
65376;BME280;51976;47.332;9.404;2022-11-20T07:04:29;92444.25;;;18.24;43.34
65376;BME280;51976;47.332;9.404;2022-11-20T07:06:54;92452.09;;;18.26;43.48
65376;BME280;51976;47.332;9.404;2022-11-20T07:09:19;92460.28;;;18.26;43.22
65376;BME280;51976;47.332;9.404;2022-11-20T07:11:45;92456.44;;;18.27;43.58
65376;BME280;51976;47.332;9.404;2022-11-20T07:14:10;92460.28;;;18.26;43.49
65376;BME280;51976;47.332;9.404;2022-11-20T07:16:36;92457.56;;;18.26;43.49
65376;BME280;51976;47.332;9.404;2022-11-20T07:19:02;92463.69;;;18.23;43.58
65376;BME280;51976;47.332;9.404;2022-11-20T07:21:27;92468.47;;;18.26;43.46
65376;BME280;51976;47.332;9.404;2022-11-20T07:23:52;92462.22;;;18.25;43.70
65376;BME280;51976;47.332;9.404;2022-11-20T07:26:18;92469.28;;;18.26;43.37
65376;BME280;51976;47.332;9.404;2022-11-20T07:28:45;92469.28;;;18.26;43.37
65376;BME280;51976;47.332;9.404;2022-11-20T07:31:10;92466.88;;;18.25;43.28
65376;BME280;51976;47.332;9.404;2022-11-20T07:33:37;92463.47;;;18.28;43.63
65376;BME280;51976;47.332;9.404;2022-11-20T07:36:03;92470.06;;;18.27;43.59
65376;BME280;51976;47.332;9.404;2022-11-20T07:38:29;92471.66;;;18.28;43.53
65376;BME280;51976;47.332;9.404;2022-11-20T07:40:55;92470.53;;;18.29;43.43
65376;BME280;51976;47.332;9.404;2022-11-20T07:43:21;92475.53;;;18.27;43.34
65376;BME280;51976;47.332;9.404;2022-11-20T07:45:47;92474.41;;;18.28;43.26
65376;BME280;51976;47.332;9.404;2022-11-20T07:48:12;92480.97;;;18.27;43.55
65376;BME280;51976;47.332;9.404;2022-11-20T07:50:37;92478.25;;;18.27;43.11
65376;BME280;51976;47.332;9.404;2022-11-20T07:53:04;92482.25;;;18.30;43.38
65376;BME280;51976;47.332;9.404;2022-11-20T07:55:30;92487.38;;;18.31;43.52
65376;BME280;51976;47.332;9.404;2022-11-20T07:57:56;92480.78;;;18.32;43.55
65376;BME280;51976;47.332;9.404;2022-11-20T08:00:23;92479.84;;;18.28;43.63
65376;BME280;51976;47.332;9.404;2022-11-20T08:02:48;92482.25;;;18.30;43.59
65376;BME280;51976;47.332;9.404;2022-11-20T08:05:13;92491.22;;;18.30;43.31
65376;BME280;51976;47.332;9.404;2022-11-20T08:07:40;92490.75;;;18.28;43.30
65376;BME280;51976;47.332;9.404;2022-11-20T08:10:07;92494.75;;;18.31;43.40
65376;BME280;51976;47.332;9.404;2022-11-20T08:12:33;92501.00;;;18.31;43.22
65376;BME280;51976;47.332;9.404;2022-11-20T08:15:18;92496.69;;;18.30;43.30
65376;BME280;51976;47.332;9.404;2022-11-20T08:17:44;92507.59;;;18.30;43.49
65376;BME280;51976;47.332;9.404;2022-11-20T08:20:10;92495.56;;;18.31;43.57
65376;BME280;51976;47.332;9.404;2022-11-20T08:22:35;92505.66;;;18.31;43.73
65376;BME280;51976;47.332;9.404;2022-11-20T08:25:00;92488.16;;;18.32;43.50
65376;BME280;51976;47.332;9.404;2022-11-20T08:27:26;92492.03;;;18.31;43.60
65376;BME280;51976;47.332;9.404;2022-11-20T08:29:51;92490.75;;;18.28;43.58
65376;BME280;51976;47.332;9.404;2022-11-20T08:32:17;92493.50;;;18.28;43.79
65376;BME280;51976;47.332;9.404;2022-11-20T08:34:42;92489.63;;;18.29;43.53
65376;BME280;51976;47.332;9.404;2022-11-20T08:37:08;92499.75;;;18.29;43.43
65376;BME280;51976;47.332;9.404;2022-11-20T08:39:33;92495.09;;;18.29;43.79
65376;BME280;51976;47.332;9.404;2022-11-20T08:41:59;92496.69;;;18.30;43.32
65376;BME280;51976;47.332;9.404;2022-11-20T08:44:24;92498.28;;;18.31;43.57
65376;BME280;51976;47.332;9.404;2022-11-20T08:46:49;92508.41;;;18.31;43.57
65376;BME280;51976;47.332;9.404;2022-11-20T08:49:15;92492.03;;;18.31;43.58
65376;BME280;51976;47.332;9.404;2022-11-20T08:51:41;92502.47;;;18.29;43.70
65376;BME280;51976;47.332;9.404;2022-11-20T08:54:07;92510.66;;;18.29;43.59
65376;BME280;51976;47.332;9.404;2022-11-20T08:56:33;92515.00;;;18.30;43.24
65376;BME280;51976;47.332;9.404;2022-11-20T08:58:58;92505.22;;;18.29;43.60
65376;BME280;51976;47.332;9.404;2022-11-20T09:01:25;92498.94;;;18.28;43.58
65376;BME280;51976;47.332;9.404;2022-11-20T09:03:51;92509.88;;;18.28;43.51
65376;BME280;51976;47.332;9.404;2022-11-20T09:06:17;92504.63;;;18.23;43.57
65376;BME280;51976;47.332;9.404;2022-11-20T09:08:43;92503.94;;;18.26;43.51
65376;BME280;51976;47.332;9.404;2022-11-20T09:11:09;92508.28;;;18.27;43.43
65376;BME280;51976;47.332;9.404;2022-11-20T09:13:35;92503.16;;;18.25;43.48
65376;BME280;51976;47.332;9.404;2022-11-20T09:16:06;92495.63;;;18.22;43.37
65376;BME280;51976;47.332;9.404;2022-11-20T09:18:33;92512.59;;;18.28;43.39
65376;BME280;51976;47.332;9.404;2022-11-20T09:21:03;92506.00;;;18.29;43.25
65376;BME280;51976;47.332;9.404;2022-11-20T09:23:34;92512.25;;;18.30;43.53
65376;BME280;51976;47.332;9.404;2022-11-20T09:26:04;92502.13;;;18.30;43.48
65376;BME280;51976;47.332;9.404;2022-11-20T09:28:30;92511.00;;;18.27;43.58
65376;BME280;51976;47.332;9.404;2022-11-20T09:30:56;92494.28;;;18.29;43.28
65376;BME280;51976;47.332;9.404;2022-11-20T09:33:22;92499.75;;;18.29;43.67
65376;BME280;51976;47.332;9.404;2022-11-20T09:35:47;92509.53;;;18.30;43.45
65376;BME280;51976;47.332;9.404;2022-11-20T09:38:13;92515.53;;;18.23;43.51
65376;BME280;51976;47.332;9.404;2022-11-20T09:40:45;92510.66;;;18.29;43.40
65376;BME280;51976;47.332;9.404;2022-11-20T09:43:19;92511.91;;;18.31;43.39
65376;BME280;51976;47.332;9.404;2022-11-20T09:46:16;92518.84;;;18.29;43.69
65376;BME280;51976;47.332;9.404;2022-11-20T09:52:09;92508.28;;;18.27;43.49
65376;BME280;51976;47.332;9.404;2022-11-20T09:54:37;92515.00;;;18.30;43.58
65376;BME280;51976;47.332;9.404;2022-11-20T09:57:12;92520.44;;;18.30;43.58
65376;BME280;51976;47.332;9.404;2022-11-20T09:59:46;92515.78;;;18.30;43.72
65376;BME280;51976;47.332;9.404;2022-11-20T10:02:21;92513.84;;;18.31;43.68
65376;BME280;51976;47.332;9.404;2022-11-20T10:05:06;92505.53;;;18.27;43.53
65376;BME280;51976;47.332;9.404;2022-11-20T10:10:46;92502.13;;;18.30;43.55
65376;BME280;51976;47.332;9.404;2022-11-20T10:13:33;92499.75;;;18.29;43.72
65376;BME280;51976;47.332;9.404;2022-11-20T10:16:17;92487.69;;;18.30;43.24
65376;BME280;51976;47.332;9.404;2022-11-20T10:19:12;92490.09;;;18.31;43.17
65376;BME280;51976;47.332;9.404;2022-11-20T10:22:00;92486.31;;;18.36;43.64
65376;BME280;51976;47.332;9.404;2022-11-20T10:24:47;92482.13;;;18.38;43.43
65376;BME280;51976;47.332;9.404;2022-11-20T10:28:04;92486.31;;;18.36;43.61
65376;BME280;51976;47.332;9.404;2022-11-20T10:30:21;92481.66;;;18.36;43.35
65376;BME280;51976;47.332;9.404;2022-11-20T10:32:55;92480.06;;;18.35;43.42
65376;BME280;51976;47.332;9.404;2022-11-20T10:35:35;92486.66;;;18.34;43.55
65376;BME280;51976;47.332;9.404;2022-11-20T10:38:11;92481.19;;;18.34;43.73
65376;BME280;51976;47.332;9.404;2022-11-20T10:40:43;92485.78;;;18.30;43.59
65376;BME280;51976;47.332;9.404;2022-11-20T10:43:23;92484.19;;;18.29;43.70
65376;BME280;51976;47.332;9.404;2022-11-20T10:45:58;92486.22;;;18.32;43.71
65376;BME280;51976;47.332;9.404;2022-11-20T10:48:27;92486.31;;;18.36;43.65
65376;BME280;51976;47.332;9.404;2022-11-20T10:53:57;92487.78;;;18.33;43.55
65376;BME280;51976;47.332;9.404;2022-11-20T10:56:42;92481.66;;;18.36;43.46
65376;BME280;51976;47.332;9.404;2022-11-20T10:59:50;92472.69;;;18.36;43.56
65376;BME280;51976;47.332;9.404;2022-11-20T11:02:23;92453.25;;;18.37;43.41
65376;BME280;51976;47.332;9.404;2022-11-20T11:04:51;92445.50;;;18.39;43.59
65376;BME280;51976;47.332;9.404;2022-11-20T11:07:27;92440.97;;;18.43;43.69
65376;BME280;51976;47.332;9.404;2022-11-20T11:09:56;92446.44;;;18.43;43.52
65376;BME280;51976;47.332;9.404;2022-11-20T11:12:24;92448.47;;;18.46;43.34
65376;BME280;51976;47.332;9.404;2022-11-20T11:14:55;92444.41;;;18.52;43.50
65376;BME280;51976;47.332;9.404;2022-11-20T11:17:24;92441.66;;;18.52;43.58
65376;BME280;51976;47.332;9.404;2022-11-20T11:20:18;92435.75;;;18.50;43.21
65376;BME280;51976;47.332;9.404;2022-11-20T11:22:47;92446.09;;;18.57;43.18
65376;BME280;51976;47.332;9.404;2022-11-20T11:25:21;92435.31;;;18.60;43.23
65376;BME280;51976;47.332;9.404;2022-11-20T11:27:48;92429.50;;;18.62;43.20
65376;BME280;51976;47.332;9.404;2022-11-20T11:30:16;92434.63;;;18.64;43.17
65376;BME280;51976;47.332;9.404;2022-11-20T11:32:42;92430.75;;;18.65;43.29
65376;BME280;51976;47.332;9.404;2022-11-20T11:35:27;92427.13;;;18.60;43.36
65376;BME280;51976;47.332;9.404;2022-11-20T11:38:05;92425.31;;;18.65;43.44
65376;BME280;51976;47.332;9.404;2022-11-20T11:40:33;92423.59;;;18.72;43.21
65376;BME280;51976;47.332;9.404;2022-11-20T11:43:04;92414.72;;;18.75;43.30
65376;BME280;51976;47.332;9.404;2022-11-20T11:45:30;92407.56;;;18.71;43.45
65376;BME280;51976;47.332;9.404;2022-11-20T11:47:58;92416.31;;;18.76;43.46
65376;BME280;51976;47.332;9.404;2022-11-20T11:50:27;92411.31;;;18.78;43.47
65376;BME280;51976;47.332;9.404;2022-11-20T11:53:13;92405.97;;;18.82;43.26
65376;BME280;51976;47.332;9.404;2022-11-20T11:55:45;92407.09;;;18.81;43.27
65376;BME280;51976;47.332;9.404;2022-11-20T11:58:45;92397.88;;;18.85;43.33
65376;BME280;51976;47.332;9.404;2022-11-20T12:01:32;92399.09;;;18.88;43.45
65376;BME280;51976;47.332;9.404;2022-11-20T12:04:17;92404.34;;;18.93;43.43
65376;BME280;51976;47.332;9.404;2022-11-20T12:06:50;92409.22;;;18.87;43.08
65376;BME280;51976;47.332;9.404;2022-11-20T12:09:18;92406.63;;;18.91;43.30
65376;BME280;51976;47.332;9.404;2022-11-20T12:11:54;92399.34;;;18.95;43.20
65376;BME280;51976;47.332;9.404;2022-11-20T12:14:35;92407.97;;;18.97;43.08
65376;BME280;51976;47.332;9.404;2022-11-20T12:17:02;92406.84;;;18.98;43.23
65376;BME280;51976;47.332;9.404;2022-11-20T12:19:33;92408.88;;;19.01;43.29
65376;BME280;51976;47.332;9.404;2022-11-20T12:22:09;92405.00;;;19.02;43.17
65376;BME280;51976;47.332;9.404;2022-11-20T12:24:52;92400.34;;;19.03;43.30
65376;BME280;51976;47.332;9.404;2022-11-20T12:27:44;92393.75;;;19.04;43.53
65376;BME280;51976;47.332;9.404;2022-11-20T12:30:17;92392.94;;;19.03;43.27
65376;BME280;51976;47.332;9.404;2022-11-20T12:33:10;92388.16;;;19.00;43.37
65376;BME280;51976;47.332;9.404;2022-11-20T12:36:06;92393.63;;;19.00;43.48
65376;BME280;51976;47.332;9.404;2022-11-20T12:38:57;92386.13;;;18.97;43.62
65376;BME280;51976;47.332;9.404;2022-11-20T12:41:49;92378.94;;;19.05;43.58
65376;BME280;51976;47.332;9.404;2022-11-20T12:50:58;92367.56;;;19.03;43.57
65376;BME280;51976;47.332;9.404;2022-11-20T12:53:44;92362.56;;;19.05;43.50
65376;BME280;51976;47.332;9.404;2022-11-20T12:56:35;92367.34;;;19.08;43.37
65376;BME280;51976;47.332;9.404;2022-11-20T13:02:47;92358.00;;;19.09;43.41
65376;BME280;51976;47.332;9.404;2022-11-20T13:05:21;92354.47;;;19.08;43.48
65376;BME280;51976;47.332;9.404;2022-11-20T13:07:51;92356.84;;;19.10;43.56
65376;BME280;51976;47.332;9.404;2022-11-20T13:10:26;92348.31;;;19.11;43.69
65376;BME280;51976;47.332;9.404;2022-11-20T13:13:12;92345.59;;;19.11;43.64
65376;BME280;51976;47.332;9.404;2022-11-20T13:15:50;92342.50;;;19.13;43.59
65376;BME280;51976;47.332;9.404;2022-11-20T13:18:17;92335.09;;;19.13;43.84
65376;BME280;51976;47.332;9.404;2022-11-20T13:20:44;92337.47;;;19.15;43.62
65376;BME280;51976;47.332;9.404;2022-11-20T13:23:10;92339.44;;;19.14;43.68
65376;BME280;51976;47.332;9.404;2022-11-20T13:25:38;92332.78;;;19.15;43.83
65376;BME280;51976;47.332;9.404;2022-11-20T13:28:26;92320.72;;;19.16;43.55
65376;BME280;51976;47.332;9.404;2022-11-20T13:30:52;92329.38;;;19.18;43.49
65376;BME280;51976;47.332;9.404;2022-11-20T13:33:30;92316.50;;;19.19;43.88